createdAt,value
2018-04-15T00:01:18.787Z,15.77
2018-04-15T00:03:46.179Z,15.71
2018-04-15T00:06:13.576Z,15.68
2018-04-15T00:08:40.962Z,15.63
2018-04-15T00:11:08.359Z,15.61
2018-04-15T00:13:35.739Z,15.62
2018-04-15T00:16:03.126Z,15.61
2018-04-15T00:18:30.511Z,15.52
2018-04-15T00:20:57.907Z,15.43
2018-04-15T00:23:25.331Z,15.45
2018-04-15T00:25:52.791Z,15.45
2018-04-15T00:28:20.179Z,15.39
2018-04-15T00:30:47.979Z,15.38
2018-04-15T00:33:15.373Z,15.33
2018-04-15T00:35:42.759Z,15.36
2018-04-15T00:38:10.151Z,15.33
2018-04-15T00:40:37.561Z,15.27
2018-04-15T00:43:04.951Z,15.30
2018-04-15T00:45:32.335Z,15.30
2018-04-15T00:47:59.727Z,15.29
2018-04-15T00:50:27.115Z,15.29
2018-04-15T00:52:54.579Z,15.24
2018-04-15T00:55:21.969Z,15.25
2018-04-15T00:57:49.363Z,15.22
2018-04-15T01:00:16.754Z,15.23
2018-04-15T01:02:44.174Z,15.19
2018-04-15T01:05:11.567Z,15.17
2018-04-15T01:07:38.960Z,15.17
2018-04-15T01:10:06.350Z,15.19
2018-04-15T01:12:33.738Z,15.14
2018-04-15T01:15:01.139Z,15.11
2018-04-15T01:17:28.532Z,15.09
2018-04-15T01:19:55.922Z,15.12
2018-04-15T01:22:23.311Z,15.05
2018-04-15T01:24:50.711Z,14.96
2018-04-15T01:27:18.096Z,14.97
2018-04-15T01:29:45.494Z,14.97
2018-04-15T01:32:12.887Z,14.91
2018-04-15T01:34:40.287Z,14.85
2018-04-15T01:37:07.663Z,14.88
2018-04-15T01:39:35.063Z,14.84
2018-04-15T01:42:02.459Z,14.87
2018-04-15T01:44:29.846Z,14.81
2018-04-15T01:46:57.244Z,14.77
2018-04-15T01:49:24.634Z,14.74
2018-04-15T01:51:52.027Z,14.72
2018-04-15T01:54:19.419Z,14.73
2018-04-15T01:56:46.819Z,14.64
2018-04-15T01:59:14.203Z,14.66
2018-04-15T02:01:41.599Z,14.70
2018-04-15T02:04:08.989Z,14.61
2018-04-15T02:06:36.564Z,14.61
2018-04-15T02:09:03.947Z,14.63
2018-04-15T02:11:31.336Z,14.66
2018-04-15T02:13:58.734Z,14.59
2018-04-15T02:16:26.123Z,14.53
2018-04-15T02:18:53.522Z,14.58
2018-04-15T02:21:20.911Z,14.55
2018-04-15T02:23:48.307Z,14.52
2018-04-15T02:26:15.692Z,14.40
2018-04-15T02:28:43.088Z,14.49
2018-04-15T02:31:10.475Z,14.46
2018-04-15T02:33:37.883Z,14.39
2018-04-15T02:36:05.265Z,14.28
2018-04-15T02:38:32.659Z,14.39
2018-04-15T02:41:00.056Z,14.36
2018-04-15T02:43:27.459Z,14.39
2018-04-15T02:45:54.844Z,14.37
2018-04-15T02:48:22.311Z,14.38
2018-04-15T02:50:49.703Z,14.40
2018-04-15T02:53:17.093Z,14.40
2018-04-15T02:55:44.487Z,14.37
2018-04-15T02:58:11.875Z,14.34
2018-04-15T03:00:39.275Z,14.37
2018-04-15T03:03:06.720Z,14.37
2018-04-15T03:05:34.118Z,14.37
2018-04-15T03:08:01.504Z,14.32
2018-04-15T03:10:28.902Z,14.35
2018-04-15T03:12:56.747Z,14.35
2018-04-15T03:15:24.138Z,14.28
2018-04-15T03:17:51.603Z,14.28
2018-04-15T03:20:19.007Z,14.27
2018-04-15T03:22:46.403Z,14.22
2018-04-15T03:25:13.790Z,14.16
2018-04-15T03:27:41.634Z,14.16
2018-04-15T03:30:09.027Z,14.21
2018-04-15T03:32:36.422Z,14.23
2018-04-15T03:35:03.811Z,14.23
2018-04-15T03:37:31.198Z,14.25
2018-04-15T03:39:58.583Z,14.29
2018-04-15T03:42:25.974Z,14.35
2018-04-15T03:44:53.367Z,14.35
2018-04-15T03:47:20.751Z,14.24
2018-04-15T03:49:48.139Z,14.28
2018-04-15T03:52:15.546Z,14.17
2018-04-15T03:54:42.926Z,14.21
2018-04-15T03:57:10.311Z,14.27
2018-04-15T03:59:37.748Z,14.28
2018-04-15T04:02:05.143Z,14.23
2018-04-15T04:04:32.531Z,14.25
2018-04-15T04:06:59.919Z,14.30
2018-04-15T04:09:27.359Z,14.29
2018-04-15T04:11:54.750Z,14.32
2018-04-15T04:14:22.143Z,14.35
2018-04-15T04:16:49.538Z,14.29
2018-04-15T04:19:28.715Z,14.31
2018-04-15T04:22:07.886Z,14.32
2018-04-15T04:27:42.218Z,14.26
2018-04-15T04:30:09.611Z,14.25
2018-04-15T04:32:37.003Z,14.26
2018-04-15T04:35:04.418Z,14.23
2018-04-15T04:37:31.823Z,14.21
2018-04-15T04:39:59.203Z,14.18
2018-04-15T04:42:26.599Z,14.16
2018-04-15T04:44:53.982Z,14.07
2018-04-15T04:47:21.443Z,14.06
2018-04-15T04:49:48.838Z,14.04
2018-04-15T04:52:16.254Z,14.03
2018-04-15T04:54:43.642Z,14.07
2018-04-15T04:57:11.062Z,14.06
2018-04-15T04:59:38.489Z,14.02
2018-04-15T05:02:05.904Z,14.04
2018-04-15T05:04:33.288Z,13.98
2018-04-15T05:07:00.676Z,14.03
2018-04-15T05:09:28.071Z,14.02
2018-04-15T05:11:55.454Z,14.02
2018-04-15T05:14:22.860Z,13.98
2018-04-15T05:16:50.243Z,13.94
2018-04-15T05:19:17.648Z,13.96
2018-04-15T05:21:45.031Z,13.94
2018-04-15T05:24:12.423Z,13.94
2018-04-15T05:26:39.815Z,13.93
2018-04-15T05:29:07.203Z,13.90
2018-04-15T05:31:34.602Z,13.86
2018-04-15T05:34:01.998Z,13.78
2018-04-15T05:36:29.410Z,13.70
2018-04-15T05:38:56.810Z,13.76
2018-04-15T05:41:24.209Z,13.73
2018-04-15T05:43:51.637Z,13.63
2018-04-15T05:46:19.027Z,13.66
2018-04-15T05:48:46.424Z,13.72
2018-04-15T05:51:13.819Z,13.71
2018-04-15T05:53:41.223Z,13.73
2018-04-15T05:56:08.620Z,13.72
2018-04-15T05:58:36.044Z,13.78
2018-04-15T06:01:03.437Z,13.81
2018-04-15T06:03:30.824Z,13.79
2018-04-15T06:05:58.227Z,13.75
2018-04-15T06:08:25.619Z,13.74
2018-04-15T06:10:53.015Z,13.66
2018-04-15T06:13:20.499Z,13.66
2018-04-15T06:15:47.899Z,13.75
2018-04-15T06:18:15.282Z,13.81
2018-04-15T06:20:42.690Z,13.84
2018-04-15T06:23:10.082Z,13.83
2018-04-15T06:25:37.475Z,13.87
2018-04-15T06:28:04.891Z,13.77
2018-04-15T06:30:32.278Z,13.77
2018-04-15T06:32:59.681Z,13.80
2018-04-15T06:35:27.066Z,13.82
2018-04-15T06:37:54.458Z,13.82
2018-04-15T06:40:21.855Z,13.87
2018-04-15T06:42:49.247Z,13.93
2018-04-15T06:45:16.759Z,14.12
2018-04-15T06:47:44.029Z,14.24
2018-04-15T06:50:11.431Z,14.27
2018-04-15T06:52:38.823Z,14.47
2018-04-15T06:55:06.231Z,14.62
2018-04-15T06:57:33.620Z,14.66
2018-04-15T07:00:01.003Z,14.73
2018-04-15T07:02:28.391Z,14.77
2018-04-15T07:04:55.782Z,14.80
2018-04-15T07:07:23.180Z,14.86
2018-04-15T07:09:50.568Z,14.92
2018-04-15T07:12:18.298Z,14.98
2018-04-15T07:14:45.680Z,14.96
2018-04-15T07:17:13.067Z,15.10
2018-04-15T07:19:40.459Z,15.06
2018-04-15T07:22:07.839Z,15.15
2018-04-15T07:24:35.230Z,15.20
2018-04-15T07:27:02.615Z,15.28
2018-04-15T07:29:30.019Z,15.38
2018-04-15T07:31:57.477Z,15.44
2018-04-15T07:34:24.862Z,15.58
2018-04-15T07:36:52.259Z,15.64
2018-04-15T07:39:19.650Z,15.71
2018-04-15T07:41:47.051Z,15.59
2018-04-15T07:44:14.439Z,15.74
2018-04-15T07:46:41.831Z,15.89
2018-04-15T07:49:09.219Z,16.02
2018-04-15T07:51:36.619Z,15.86
2018-04-15T07:54:04.007Z,16.02
2018-04-15T07:56:31.393Z,16.17
2018-04-15T07:58:58.782Z,16.27
2018-04-15T08:01:26.168Z,16.23
2018-04-15T08:03:54.571Z,16.25
2018-04-15T08:06:21.963Z,16.15
2018-04-15T08:08:49.371Z,16.11
2018-04-15T08:11:16.751Z,15.94
2018-04-15T08:13:45.786Z,16.00
2018-04-15T08:16:13.171Z,16.06
2018-04-15T08:18:40.718Z,16.09
2018-04-15T08:21:08.106Z,16.16
2018-04-15T08:23:35.496Z,16.29
2018-04-15T08:26:02.891Z,16.33
2018-04-15T08:28:30.752Z,16.27
2018-04-15T08:30:58.131Z,16.11
2018-04-15T08:33:25.511Z,15.94
2018-04-15T08:35:52.919Z,16.02
2018-04-15T08:38:20.382Z,16.05
2018-04-15T08:40:47.809Z,16.32
2018-04-15T08:43:15.227Z,16.44
2018-04-15T08:45:42.590Z,16.64
2018-04-15T08:48:10.041Z,16.81
2018-04-15T08:50:37.431Z,16.98
2018-04-15T08:53:04.814Z,17.20
2018-04-15T08:55:32.191Z,17.28
2018-04-15T08:57:59.583Z,17.28
2018-04-15T09:00:27.005Z,17.18
2018-04-15T09:02:54.354Z,17.14
2018-04-15T09:05:21.747Z,16.99
2018-04-15T09:07:49.123Z,17.24
2018-04-15T09:10:16.523Z,17.57
2018-04-15T09:12:43.894Z,17.69
2018-04-15T09:15:11.283Z,17.79
2018-04-15T09:17:38.666Z,17.82
2018-04-15T09:20:06.062Z,17.89
2018-04-15T09:22:33.443Z,17.86
2018-04-15T09:25:00.815Z,17.73
2018-04-15T09:27:28.194Z,17.76
2018-04-15T09:29:55.570Z,17.72
2018-04-15T09:32:22.963Z,17.81
2018-04-15T09:34:50.335Z,18.01
2018-04-15T09:37:17.718Z,17.95
2018-04-15T09:39:45.146Z,17.95
2018-04-15T09:42:12.517Z,17.97
2018-04-15T09:44:39.891Z,18.11
2018-04-15T09:47:07.277Z,18.35
2018-04-15T09:49:34.653Z,18.58
2018-04-15T09:52:02.395Z,19.01
2018-04-15T09:54:29.770Z,19.57
2018-04-15T09:56:57.153Z,19.77
2018-04-15T09:59:24.538Z,19.54
2018-04-15T10:01:51.923Z,19.54
2018-04-15T10:04:19.299Z,19.68
2018-04-15T10:06:46.683Z,19.60
2018-04-15T10:09:14.066Z,19.25
2018-04-15T10:11:41.454Z,18.92
2018-04-15T10:14:08.851Z,18.82
2018-04-15T10:16:36.211Z,18.85
2018-04-15T10:19:03.591Z,18.92
2018-04-15T10:21:30.975Z,18.93
2018-04-15T10:23:58.379Z,18.94
2018-04-15T10:26:25.752Z,19.04
2018-04-15T10:28:53.128Z,19.12
2018-04-15T10:31:20.522Z,19.60
2018-04-15T10:33:47.907Z,20.37
2018-04-15T10:36:15.291Z,21.03
2018-04-15T10:38:42.735Z,21.55
2018-04-15T10:41:10.096Z,21.18
2018-04-15T10:43:37.468Z,20.74
2018-04-15T10:46:04.901Z,20.63
2018-04-15T10:48:32.226Z,20.57
2018-04-15T10:50:59.651Z,21.14
2018-04-15T10:53:27.029Z,21.47
2018-04-15T10:55:54.411Z,22.10
2018-04-15T10:58:21.792Z,22.92
2018-04-15T11:00:49.176Z,23.37
2018-04-15T11:03:16.552Z,23.72
2018-04-15T11:05:43.926Z,23.35
2018-04-15T11:08:11.323Z,23.05
2018-04-15T11:10:38.707Z,22.67
2018-04-15T11:13:06.082Z,23.07
2018-04-15T11:15:33.467Z,23.28
2018-04-15T11:18:00.849Z,23.24
2018-04-15T11:20:28.277Z,22.96
2018-04-15T11:22:55.655Z,22.40
2018-04-15T11:25:23.031Z,21.95
2018-04-15T11:27:50.418Z,22.15
2018-04-15T11:30:17.794Z,22.35
2018-04-15T11:32:45.166Z,22.43
2018-04-15T11:35:12.548Z,23.15
2018-04-15T11:37:39.927Z,23.22
2018-04-15T11:40:07.311Z,23.01
2018-04-15T11:42:34.687Z,22.83
2018-04-15T11:45:02.088Z,22.69
2018-04-15T11:47:29.479Z,22.72
2018-04-15T11:49:56.859Z,23.02
2018-04-15T11:52:24.239Z,23.12
2018-04-15T11:54:51.623Z,23.09
2018-04-15T11:57:19.004Z,23.18
2018-04-15T11:59:46.375Z,23.32
2018-04-15T12:02:13.786Z,23.09
2018-04-15T12:04:41.139Z,22.86
2018-04-15T12:07:08.514Z,22.29
2018-04-15T12:09:35.887Z,22.30
2018-04-15T12:12:03.278Z,22.26
2018-04-15T12:14:30.659Z,22.65
2018-04-15T12:16:58.063Z,22.92
2018-04-15T12:19:25.442Z,22.76
2018-04-15T12:21:53.271Z,22.67
2018-04-15T12:24:20.651Z,23.09
2018-04-15T12:26:48.067Z,22.86
2018-04-15T12:29:15.412Z,22.56
2018-04-15T12:31:42.792Z,22.32
2018-04-15T12:34:10.254Z,22.52
2018-04-15T12:36:37.738Z,22.68
2018-04-15T12:39:05.906Z,22.80
2018-04-15T12:41:33.290Z,23.55
2018-04-15T12:44:00.668Z,23.98
2018-04-15T12:46:28.058Z,24.17
2018-04-15T12:48:55.447Z,23.66
2018-04-15T12:51:23.015Z,23.60
2018-04-15T12:53:50.407Z,23.48
2018-04-15T12:56:17.805Z,23.42
2018-04-15T12:58:45.190Z,23.25
2018-04-15T13:01:12.583Z,22.93
2018-04-15T13:03:40.083Z,23.30
2018-04-15T13:06:07.541Z,23.79
2018-04-15T13:08:34.887Z,24.21
2018-04-15T13:11:02.262Z,24.41
2018-04-15T13:13:29.762Z,24.73
2018-04-15T13:15:57.151Z,24.50
2018-04-15T13:18:24.538Z,24.53
2018-04-15T13:20:51.929Z,24.54
2018-04-15T13:23:19.396Z,24.44
2018-04-15T13:25:46.820Z,24.08
2018-04-15T13:28:14.194Z,24.36
2018-04-15T13:30:41.633Z,24.35
2018-04-15T13:33:08.995Z,24.61
2018-04-15T13:35:36.374Z,24.72
2018-04-15T13:38:03.755Z,23.88
2018-04-15T13:40:31.152Z,23.39
2018-04-15T13:42:58.535Z,23.64
2018-04-15T13:45:25.929Z,23.57
2018-04-15T13:47:53.306Z,23.41
2018-04-15T13:50:20.755Z,23.56
2018-04-15T13:52:48.143Z,23.59
2018-04-15T13:55:15.517Z,23.81
2018-04-15T13:57:42.902Z,23.72
2018-04-15T14:00:10.295Z,23.84
2018-04-15T14:02:37.685Z,23.94
2018-04-15T14:05:05.059Z,23.81
2018-04-15T14:07:32.446Z,23.79
2018-04-15T14:09:59.879Z,23.77
2018-04-15T14:12:27.267Z,23.73
2018-04-15T14:14:54.634Z,23.70
2018-04-15T14:17:22.019Z,23.85
2018-04-15T14:19:49.435Z,23.97
2018-04-15T14:22:16.820Z,24.01
2018-04-15T14:24:44.225Z,24.08
2018-04-15T14:27:11.647Z,23.99
2018-04-15T14:29:39.023Z,23.63
2018-04-15T14:32:06.399Z,23.24
2018-04-15T14:34:33.839Z,23.38
2018-04-15T14:37:01.224Z,23.44
2018-04-15T14:39:28.878Z,23.50
2018-04-15T14:41:56.262Z,23.61
2018-04-15T14:44:23.846Z,23.39
2018-04-15T14:46:51.348Z,23.17
2018-04-15T14:49:18.766Z,22.90
2018-04-15T14:51:46.176Z,22.61
2018-04-15T14:54:13.551Z,22.48
2018-04-15T14:56:40.934Z,22.48
2018-04-15T14:59:08.444Z,22.29
2018-04-15T15:01:36.060Z,22.13
2018-04-15T15:04:03.451Z,22.13
2018-04-15T15:06:30.839Z,22.16
2018-04-15T15:08:58.254Z,22.19
2018-04-15T15:11:25.687Z,22.25
2018-04-15T15:13:53.066Z,22.21
2018-04-15T15:16:20.445Z,22.10
2018-04-15T15:18:47.820Z,21.87
2018-04-15T15:21:15.190Z,21.87
2018-04-15T15:23:42.574Z,21.83
2018-04-15T15:26:09.987Z,21.86
2018-04-15T15:28:37.415Z,21.84
2018-04-15T15:31:04.832Z,21.97
2018-04-15T15:33:32.216Z,22.08
2018-04-15T15:35:59.624Z,22.15
2018-04-15T15:38:27.000Z,22.17
2018-04-15T15:40:54.383Z,22.23
2018-04-15T15:43:21.765Z,22.30
2018-04-15T15:45:49.172Z,22.30
2018-04-15T15:48:16.645Z,22.23
2018-04-15T15:50:44.223Z,22.25
2018-04-15T15:53:11.620Z,22.28
2018-04-15T15:55:39.063Z,22.25
2018-04-15T15:58:06.456Z,22.17
2018-04-15T16:00:33.848Z,22.06
2018-04-15T16:03:01.235Z,22.00
2018-04-15T16:05:28.729Z,21.81
2018-04-15T16:07:56.151Z,21.55
2018-04-15T16:10:23.534Z,21.53
2018-04-15T16:12:51.154Z,21.26
2018-04-15T16:15:18.534Z,21.33
2018-04-15T16:17:45.923Z,21.26
2018-04-15T16:20:13.312Z,21.10
2018-04-15T16:22:40.685Z,21.07
2018-04-15T16:25:08.074Z,21.03
2018-04-15T16:27:35.538Z,20.93
2018-04-15T16:30:02.923Z,20.91
2018-04-15T16:32:30.515Z,20.83
2018-04-15T16:34:57.953Z,20.83
2018-04-15T16:37:25.335Z,20.77
2018-04-15T16:39:52.715Z,20.77
2018-04-15T16:42:20.123Z,20.71
2018-04-15T16:44:47.498Z,20.66
2018-04-15T16:47:14.903Z,20.59
2018-04-15T16:49:42.282Z,20.42
2018-04-15T16:52:09.731Z,20.37
2018-04-15T16:54:37.103Z,20.29
2018-04-15T16:57:04.490Z,20.16
2018-04-15T16:59:31.887Z,20.07
2018-04-15T17:01:59.266Z,20.10
2018-04-15T17:04:26.733Z,19.83
2018-04-15T17:06:54.114Z,19.94
2018-04-15T17:09:21.534Z,19.92
2018-04-15T17:11:48.999Z,19.78
2018-04-15T17:14:16.511Z,19.61
2018-04-15T17:16:43.991Z,19.64
2018-04-15T17:19:11.464Z,19.63
2018-04-15T17:21:38.932Z,19.58
2018-04-15T17:24:06.407Z,19.65
2018-04-15T17:26:33.848Z,19.57
2018-04-15T17:29:01.221Z,19.56
2018-04-15T17:31:28.608Z,19.55
2018-04-15T17:33:56.166Z,19.56
2018-04-15T17:36:23.591Z,19.54
2018-04-15T17:38:50.979Z,19.56
2018-04-15T17:41:18.366Z,19.51
2018-04-15T17:43:45.742Z,19.43
2018-04-15T17:46:13.135Z,19.34
2018-04-15T17:48:40.519Z,19.27
2018-04-15T17:51:07.909Z,19.24
2018-04-15T17:53:35.295Z,19.19
2018-04-15T17:56:02.679Z,19.15
2018-04-15T17:58:30.263Z,19.09
2018-04-15T18:00:57.647Z,19.06
2018-04-15T18:03:25.032Z,19.05
2018-04-15T18:05:52.418Z,19.07
2018-04-15T18:08:19.803Z,19.05
2018-04-15T18:10:47.206Z,19.02
2018-04-15T18:13:14.599Z,18.98
2018-04-15T18:15:41.982Z,18.95
2018-04-15T18:18:09.352Z,18.92
2018-04-15T18:20:36.735Z,18.88
2018-04-15T18:23:04.123Z,18.85
2018-04-15T18:25:31.503Z,18.78
2018-04-15T18:27:58.876Z,18.70
2018-04-15T18:30:26.254Z,18.62
2018-04-15T18:32:53.623Z,18.55
2018-04-15T18:35:21.010Z,18.37
2018-04-15T18:37:48.399Z,18.25
2018-04-15T18:40:15.782Z,18.24
2018-04-15T18:42:43.204Z,18.21
2018-04-15T18:45:10.584Z,18.20
2018-04-15T18:47:37.974Z,18.17
2018-04-15T18:50:05.445Z,18.13
2018-04-15T18:52:32.743Z,18.05
2018-04-15T18:55:00.119Z,17.92
2018-04-15T18:57:27.507Z,17.80
2018-04-15T18:59:54.887Z,17.70
2018-04-15T19:02:22.408Z,17.67
2018-04-15T19:04:49.811Z,17.62
2018-04-15T19:07:17.197Z,17.54
2018-04-15T19:09:44.605Z,17.52
2018-04-15T19:12:12.170Z,17.46
2018-04-15T19:14:39.571Z,17.40
2018-04-15T19:17:06.951Z,17.35
2018-04-15T19:19:34.363Z,17.29
2018-04-15T19:22:01.807Z,17.25
2018-04-15T19:24:29.182Z,17.22
2018-04-15T19:26:56.628Z,17.17
2018-04-15T19:29:24.015Z,17.12
2018-04-15T19:31:51.403Z,17.09
2018-04-15T19:34:18.800Z,17.09
2018-04-15T19:36:46.240Z,17.08
2018-04-15T19:39:13.643Z,17.04
2018-04-15T19:41:41.028Z,16.91
2018-04-15T19:44:08.467Z,16.82
2018-04-15T19:46:35.855Z,16.78
2018-04-15T19:49:03.244Z,16.80
2018-04-15T19:51:30.643Z,16.78
2018-04-15T19:53:58.027Z,16.72
2018-04-15T19:56:25.411Z,16.73
2018-04-15T19:58:52.794Z,16.61
2018-04-15T20:01:20.178Z,16.58
2018-04-15T20:03:47.574Z,16.58
2018-04-15T20:06:14.958Z,16.59
2018-04-15T20:08:42.357Z,16.55
2018-04-15T20:11:09.761Z,16.53
2018-04-15T20:13:37.116Z,16.54
2018-04-15T20:16:04.506Z,16.51
2018-04-15T20:18:31.891Z,16.42
2018-04-15T20:20:59.283Z,16.40
2018-04-15T20:23:26.675Z,16.35
2018-04-15T20:25:54.058Z,16.32
2018-04-15T20:28:21.438Z,16.21
2018-04-15T20:30:48.826Z,16.16
2018-04-15T20:33:16.227Z,16.15
2018-04-15T20:35:43.607Z,16.12
2018-04-15T20:38:10.991Z,16.05
2018-04-15T20:40:38.382Z,15.95
2018-04-15T20:43:05.766Z,15.89
2018-04-15T20:45:33.155Z,15.81
2018-04-15T20:48:00.543Z,15.76
2018-04-15T20:50:27.938Z,15.74
2018-04-15T20:52:55.327Z,15.73
2018-04-15T20:55:22.716Z,15.70
2018-04-15T20:57:50.124Z,15.69
2018-04-15T21:00:17.503Z,15.65
2018-04-15T21:02:44.887Z,15.65
2018-04-15T21:05:12.263Z,15.66
2018-04-15T21:07:39.658Z,15.66
2018-04-15T21:10:07.043Z,15.65
2018-04-15T21:12:34.426Z,15.55
2018-04-15T21:15:02.318Z,15.53
2018-04-15T21:17:29.699Z,15.49
2018-04-15T21:19:57.086Z,15.48
2018-04-15T21:22:24.469Z,15.53
2018-04-15T21:24:52.275Z,15.53
2018-04-15T21:27:19.654Z,15.59
2018-04-15T21:29:47.035Z,15.62
2018-04-15T21:32:14.431Z,15.61
2018-04-15T21:34:41.811Z,15.64
2018-04-15T21:37:09.198Z,15.63
2018-04-15T21:39:36.579Z,15.58
2018-04-15T21:42:03.971Z,15.67
2018-04-15T21:44:31.347Z,15.68
2018-04-15T21:46:58.735Z,15.67
2018-04-15T21:49:26.179Z,15.67
2018-04-15T21:51:53.559Z,15.59
2018-04-15T21:54:20.951Z,15.47
2018-04-15T21:56:48.331Z,15.43
2018-04-15T21:59:16.075Z,15.36
2018-04-15T22:01:43.455Z,15.31
2018-04-15T22:04:10.839Z,15.26
2018-04-15T22:06:38.226Z,15.18
2018-04-15T22:09:05.611Z,15.08
2018-04-15T22:11:44.731Z,15.01
2018-04-15T22:14:12.115Z,15.08
2018-04-15T22:16:39.503Z,15.05
2018-04-15T22:19:06.985Z,14.94
2018-04-15T22:21:34.362Z,14.88
2018-04-15T22:24:01.755Z,14.83
2018-04-15T22:26:29.135Z,14.80
2018-04-15T22:28:56.523Z,14.81
2018-04-15T22:31:23.899Z,14.71
2018-04-15T22:33:51.296Z,14.67
2018-04-15T22:36:18.671Z,14.67
2018-04-15T22:38:46.054Z,14.62
2018-04-15T22:41:13.441Z,14.51
2018-04-15T22:43:40.822Z,14.42
2018-04-15T22:46:08.215Z,14.42
2018-04-15T22:48:41.239Z,14.37
2018-04-15T22:51:08.650Z,14.33
2018-04-15T22:53:36.035Z,14.30
2018-04-15T22:56:09.407Z,14.25
2018-04-15T22:58:42.435Z,14.19
2018-04-15T23:01:09.826Z,14.14
2018-04-15T23:03:37.206Z,14.12
2018-04-15T23:06:04.591Z,14.08
2018-04-15T23:08:31.979Z,14.07
2018-04-15T23:10:59.358Z,14.12
2018-04-15T23:13:26.751Z,14.07
2018-04-15T23:15:54.127Z,14.04
2018-04-15T23:18:21.535Z,14.02
2018-04-15T23:20:48.914Z,13.96
2018-04-15T23:23:16.302Z,13.92
2018-04-15T23:25:43.690Z,13.95
2018-04-15T23:28:11.078Z,13.96
2018-04-15T23:30:38.482Z,13.98
2018-04-15T23:33:05.863Z,13.99
2018-04-15T23:35:33.268Z,13.99
2018-04-15T23:38:00.711Z,13.95
2018-04-15T23:40:28.091Z,13.98
2018-04-15T23:42:55.487Z,13.94
2018-04-15T23:45:22.872Z,13.88
2018-04-15T23:47:50.274Z,13.82
2018-04-15T23:50:17.660Z,13.77
2018-04-15T23:52:45.067Z,13.75
2018-04-15T23:55:12.451Z,13.72
2018-04-15T23:57:39.830Z,13.66
